Time;durP1;ratioP1;P1;durP2;ratioP2;P2;SDS_P1;SDS_P2;PMS_P1;PMS_P2;Temp;Humidity;BMP_temperature;BMP_pressure;BME280_temperature;BME280_humidity;BME280_pressure;Samples;Min_cycle;Max_cycle;Signal;HPM_P1;HPM_P2
2021/11/18 00:01:28;;;;;;;;;31.50;26.25;;;;;11.20;100.00;102636.13;5016206;28;45249;-75
2021/11/18 00:03:55;;;;;;;;;22.25;21.00;;;;;11.25;100.00;102649.41;5016415;28;45418;-75
2021/11/18 00:06:21;;;;;;;;;28.00;23.75;;;;;11.18;100.00;102621.22;5016073;28;45601;-75
2021/11/18 00:08:47;;;;;;;;;31.00;29.00;;;;;11.22;100.00;102639.72;5016256;28;45336;-75
2021/11/18 00:11:17;;;;;;;;;30.75;28.00;;;;;11.20;100.00;102648.16;4999310;28;45379;-74
2021/11/18 00:13:48;;;;;;;;;31.00;27.00;;;;;11.18;100.00;102644.56;5018007;28;45434;-74
2021/11/18 00:16:14;;;;;;;;;30.50;29.25;;;;;11.19;100.00;102639.50;5015808;28;46155;-74
2021/11/18 00:18:40;;;;;;;;;36.00;27.50;;;;;11.21;100.00;102647.38;5015867;28;45420;-74
2021/11/18 00:21:08;;;;;;;;;34.75;31.25;;;;;11.19;100.00;102643.78;4998370;28;45390;-75
2021/11/18 00:23:37;;;;;;;;;30.50;29.00;;;;;11.14;100.00;102646.94;5016661;28;45421;-75
2021/11/18 00:26:04;;;;;;;;;29.75;29.50;;;;;11.09;100.00;102637.94;5015614;28;45644;-76
2021/11/18 00:28:30;;;;;;;;;27.25;26.00;;;;;11.07;100.00;102634.31;5015829;28;45806;-76
2021/11/18 00:30:56;;;;;;;;;31.00;26.75;;;;;11.08;100.00;102638.72;5015862;28;45233;-75
2021/11/18 00:33:23;;;;;;;;;28.00;25.25;;;;;11.04;100.00;102634.13;5015928;28;45306;-75
2021/11/18 00:35:49;;;;;;;;;28.50;27.50;;;;;11.02;100.00;102635.69;5015831;28;45440;-74
2021/11/18 00:38:15;;;;;;;;;26.00;23.50;;;;;10.99;100.00;102628.59;5015676;28;45418;-74
2021/11/18 00:40:44;;;;;;;;;29.75;24.75;;;;;10.98;100.00;102624.22;5015818;28;45380;-73
2021/11/18 00:43:12;;;;;;;;;25.50;24.25;;;;;10.97;100.00;102616.31;5015958;28;45579;-74
2021/11/18 00:45:38;;;;;;;;;28.25;25.25;;;;;10.96;100.00;102620.59;5015398;28;45273;-73
2021/11/18 00:48:05;;;;;;;;;28.75;22.75;;;;;10.94;100.00;102606.63;5017989;28;45996;-74
2021/11/18 00:50:37;;;;;;;;;25.75;20.25;;;;;10.94;100.00;102609.22;5019092;28;45379;-75
2021/11/18 00:53:03;;;;;;;;;26.75;26.00;;;;;10.88;100.00;102598.41;5019176;28;45461;-76
2021/11/18 00:55:30;;;;;;;;;28.75;27.25;;;;;10.94;100.00;102610.91;5018809;28;45561;-75
2021/11/18 00:57:56;;;;;;;;;31.25;25.25;;;;;10.88;100.00;102605.28;5001116;28;45486;-74
2021/11/18 01:00:31;;;;;;;;;27.25;23.00;;;;;10.91;100.00;102608.97;5018934;28;45353;-75
2021/11/18 01:02:58;;;;;;;;;25.75;22.75;;;;;10.90;100.00;102616.66;5019243;28;45443;-75
2021/11/18 01:05:27;;;;;;;;;23.50;21.75;;;;;10.88;100.00;102613.97;5018684;28;46569;-74
2021/11/18 01:07:57;;;;;;;;;28.75;25.00;;;;;10.88;100.00;102619.16;5018515;28;45329;-75
2021/11/18 01:10:28;;;;;;;;;24.75;23.00;;;;;10.88;100.00;102619.16;5018768;28;45367;-74
2021/11/18 01:12:54;;;;;;;;;24.75;22.00;;;;;10.80;100.00;102615.06;5019024;28;45271;-76
2021/11/18 01:15:24;;;;;;;;;26.75;24.25;;;;;10.82;100.00;102629.03;5018790;28;46104;-74
2021/11/18 01:17:50;;;;;;;;;27.75;23.25;;;;;10.82;100.00;102636.81;5001024;28;45245;-74
2021/11/18 01:20:18;;;;;;;;;30.75;24.00;;;;;10.83;100.00;102646.41;5018561;28;45266;-74
2021/11/18 01:22:44;;;;;;;;;29.50;25.75;;;;;10.77;100.00;102636.50;5018850;28;45546;-75
2021/11/18 01:25:12;;;;;;;;;27.50;26.75;;;;;10.81;100.00;102635.94;5018330;28;45321;-75
2021/11/18 01:27:38;;;;;;;;;28.25;26.75;;;;;10.77;100.00;102638.19;5018398;28;45337;-75
2021/11/18 01:30:09;;;;;;;;;27.75;26.50;;;;;10.78;100.00;102634.81;5018452;28;45365;-74
2021/11/18 01:32:35;;;;;;;;;32.75;28.50;;;;;10.70;100.00;102618.69;5018497;28;45431;-75
2021/11/18 01:35:00;;;;;;;;;35.50;29.50;;;;;10.73;100.00;102624.13;5018053;28;45359;-74
2021/11/18 01:37:26;;;;;;;;;29.50;28.25;;;;;10.72;100.00;102627.50;5018215;28;45344;-75
2021/11/18 01:39:51;;;;;;;;;32.75;28.25;;;;;10.72;100.00;102622.31;5018668;28;45451;-73
2021/11/18 01:42:17;;;;;;;;;32.25;29.00;;;;;10.72;100.00;102635.25;5018689;28;45324;-73
2021/11/18 01:44:46;;;;;;;;;30.50;28.50;;;;;10.68;100.00;102636.72;5017939;28;45948;-73
2021/11/18 01:47:12;;;;;;;;;33.50;27.75;;;;;10.72;100.00;102644.72;5018136;28;45329;-74
2021/11/18 01:49:42;;;;;;;;;24.50;24.50;;;;;10.71;100.00;102650.66;5018135;28;45313;-74
2021/11/18 01:52:14;;;;;;;;;27.00;26.00;;;;;10.65;100.00;102649.44;5018373;28;45309;-74
2021/11/18 01:54:41;;;;;;;;;29.75;25.00;;;;;10.60;100.00;102655.97;5017714;28;45515;-73
2021/11/18 01:57:11;;;;;;;;;32.75;30.50;;;;;10.61;100.00;102651.69;5017712;28;45326;-74
2021/11/18 01:59:39;;;;;;;;;32.50;28.25;;;;;10.60;100.00;102655.97;5017721;28;45347;-73
2021/11/18 02:02:10;;;;;;;;;36.50;29.00;;;;;10.61;100.00;102656.88;5018100;28;45323;-73
2021/11/18 02:04:50;;;;;;;;;28.00;25.75;;;;;10.63;100.00;102665.69;5017786;28;46108;-75
2021/11/18 02:07:16;;;;;;;;;34.25;30.50;;;;;10.65;100.00;102651.13;5017760;28;45370;-74
2021/11/18 02:09:44;;;;;;;;;34.50;29.50;;;;;10.62;100.00;102644.03;5017882;28;45460;-75
2021/11/18 02:12:18;;;;;;;;;27.25;27.00;;;;;10.60;100.00;102650.78;5017791;28;45239;-73
2021/11/18 02:14:44;;;;;;;;;26.25;23.50;;;;;10.52;100.00;102642.47;5017466;28;45368;-74
2021/11/18 02:17:14;;;;;;;;;29.75;28.00;;;;;10.48;100.00;102640.41;5017645;28;45459;-74
2021/11/18 02:19:58;;;;;;;;;29.25;26.00;;;;;10.46;100.00;102649.75;5017698;28;45443;-74
2021/11/18 02:22:25;;;;;;;;;29.00;25.75;;;;;10.43;100.00;102652.09;5017610;28;45511;-73
2021/11/18 02:24:55;;;;;;;;;30.25;25.50;;;;;10.42;100.00;102655.47;5017698;28;46026;-73
2021/11/18 02:27:23;;;;;;;;;29.25;25.75;;;;;10.43;100.00;102654.69;5018147;28;45387;-73
2021/11/18 02:29:52;;;;;;;;;27.25;24.25;;;;;10.38;100.00;102645.69;5019580;28;45234;-73
2021/11/18 02:32:22;;;;;;;;;30.25;27.25;;;;;10.43;100.00;102648.63;5017898;28;45305;-73
2021/11/18 02:34:59;;;;;;;;;27.25;24.75;;;;;10.46;100.00;102657.53;5017161;28;45273;-74
2021/11/18 02:37:26;;;;;;;;;29.75;27.50;;;;;10.41;100.00;102650.19;5017232;28;45891;-74
2021/11/18 02:39:51;;;;;;;;;32.75;30.50;;;;;10.42;100.00;102664.94;5017660;28;45371;-73
2021/11/18 02:42:19;;;;;;;;;37.00;28.75;;;;;10.39;100.00;102663.03;5017537;28;45450;-73
2021/11/18 02:44:46;;;;;;;;;29.75;24.75;;;;;10.34;100.00;102665.25;5017100;28;46451;-73
2021/11/18 02:47:12;;;;;;;;;30.25;24.75;;;;;10.32;100.00;102661.63;5017135;28;45391;-73
2021/11/18 02:49:47;;;;;;;;;30.50;28.50;;;;;10.33;100.00;102668.63;5017133;28;45298;-73
2021/11/18 02:52:17;;;;;;;;;40.25;31.75;;;;;10.32;100.00;102676.25;5017809;28;45877;-73
2021/11/18 02:54:43;;;;;;;;;30.25;26.75;;;;;10.32;100.00;102660.72;5016731;28;46189;-72
2021/11/18 02:57:09;;;;;;;;;33.25;32.50;;;;;10.23;100.00;102648.88;5017098;28;45497;-72
2021/11/18 02:59:36;;;;;;;;;33.75;29.75;;;;;10.15;100.00;102647.41;5016812;28;45260;-72
2021/11/18 03:02:04;;;;;;;;;29.50;26.25;;;;;10.22;100.00;102662.63;4998963;28;45364;-73
2021/11/18 03:04:31;;;;;;;;;34.25;28.75;;;;;10.18;100.00;102670.03;5016758;28;45455;-72
2021/11/18 03:06:59;;;;;;;;;37.25;31.50;;;;;10.20;100.00;102681.41;4999225;28;45483;-72
2021/11/18 03:09:25;;;;;;;;;30.75;26.25;;;;;10.16;100.00;102679.38;5015991;28;45258;-73
2021/11/18 03:11:51;;;;;;;;;32.50;29.00;;;;;10.13;100.00;102674.84;5017401;28;45246;-73
2021/11/18 03:14:16;;;;;;;;;26.50;25.75;;;;;10.17;100.00;102688.94;5016444;28;45756;-74
2021/11/18 03:16:42;;;;;;;;;36.25;32.50;;;;;10.15;100.00;102686.25;5016496;28;45349;-73
2021/11/18 03:19:08;;;;;;;;;27.50;23.50;;;;;10.13;100.00;102692.97;5016885;28;45250;-73
2021/11/18 03:21:34;;;;;;;;;31.25;31.00;;;;;10.06;100.00;102675.19;4999283;28;45285;-73
2021/11/18 03:24:00;;;;;;;;;29.00;27.25;;;;;10.11;100.00;102681.59;5016065;28;45988;-73
2021/11/18 03:26:29;;;;;;;;;19.75;17.25;;;;;10.14;100.00;102680.97;5016708;28;45355;-73
2021/11/18 03:28:55;;;;;;;;;28.00;26.50;;;;;10.10;100.00;102687.56;5016168;28;45475;-73
2021/11/18 03:31:21;;;;;;;;;24.50;22.25;;;;;10.07;100.00;102688.22;5016382;28;45462;-73
2021/11/18 03:33:48;;;;;;;;;29.75;27.75;;;;;10.06;100.00;102686.41;5016430;28;46010;-73
2021/11/18 03:36:16;;;;;;;;;33.25;30.75;;;;;10.07;100.00;102685.63;5016540;28;45249;-73
2021/11/18 03:38:42;;;;;;;;;28.00;26.75;;;;;10.09;100.00;102678.03;5016464;28;45328;-73
2021/11/18 03:41:09;;;;;;;;;29.50;25.75;;;;;10.04;100.00;102669.88;5015306;28;45437;-73
2021/11/18 03:43:45;;;;;;;;;32.50;26.75;;;;;10.02;100.00;102681.81;5016194;28;46221;-73
2021/11/18 03:46:12;;;;;;;;;25.50;25.25;;;;;10.01;100.00;102677.41;5015805;28;46025;-72
2021/11/18 03:48:38;;;;;;;;;32.00;25.75;;;;;9.99;100.00;102685.84;4996741;28;45252;-73
2021/11/18 03:51:07;;;;;;;;;27.50;23.75;;;;;9.96;100.00;102695.97;5012118;28;45574;-73
2021/11/18 03:53:34;;;;;;;;;32.25;28.00;;;;;9.93;100.00;102691.47;5015602;28;45352;-73
2021/11/18 03:56:06;;;;;;;;;29.25;25.25;;;;;9.94;100.00;102697.53;5016326;28;45344;-73
2021/11/18 03:58:32;;;;;;;;;27.50;25.00;;;;;9.89;100.00;102695.47;5015595;28;45321;-73
2021/11/18 04:00:57;;;;;;;;;35.50;28.75;;;;;9.88;100.00;102698.81;5016440;28;45526;-73
2021/11/18 04:03:23;;;;;;;;;30.00;27.50;;;;;9.87;100.00;102701.31;5016209;28;45453;-73
2021/11/18 04:05:49;;;;;;;;;31.00;27.75;;;;;9.87;100.00;102690.97;5015257;28;45511;-73
2021/11/18 04:08:15;;;;;;;;;33.00;29.00;;;;;9.86;100.00;102708.19;4998448;28;45481;-73
2021/11/18 04:10:41;;;;;;;;;29.00;27.50;;;;;9.79;100.00;102698.13;5015824;28;45261;-73
2021/11/18 04:13:08;;;;;;;;;28.75;25.50;;;;;9.76;100.00;102697.91;5015591;28;46667;-73
2021/11/18 04:15:35;;;;;;;;;28.25;26.00;;;;;9.78;100.00;102700.59;5016135;28;45816;-73
2021/11/18 04:18:01;;;;;;;;;25.25;23.00;;;;;9.80;100.00;102712.84;5016180;28;45415;-73
2021/11/18 04:20:28;;;;;;;;;33.75;32.50;;;;;9.76;100.00;102714.31;5016269;28;45589;-73
2021/11/18 04:22:55;;;;;;;;;32.00;30.00;;;;;9.72;100.00;102717.41;5017944;28;45843;-73
2021/11/18 04:25:24;;;;;;;;;28.00;26.50;;;;;9.66;100.00;102713.47;5019172;28;45306;-73
2021/11/18 04:27:50;;;;;;;;;38.25;29.50;;;;;9.68;100.00;102724.81;5019039;28;45454;-73
2021/11/18 04:30:19;;;;;;;;;32.00;26.75;;;;;9.61;100.00;102720.84;5019207;28;45560;-73
2021/11/18 04:32:45;;;;;;;;;31.50;29.25;;;;;9.59;100.00;102719.84;5018308;28;45412;-72
2021/11/18 04:35:11;;;;;;;;;26.50;26.25;;;;;9.59;100.00;102720.72;5019084;28;45361;-73
2021/11/18 04:37:37;;;;;;;;;34.00;30.75;;;;;9.57;100.00;102730.03;5019024;28;45229;-73
2021/11/18 04:40:04;;;;;;;;;30.00;28.00;;;;;9.57;100.00;102730.03;5019093;28;45513;-73
2021/11/18 04:42:29;;;;;;;;;33.00;30.75;;;;;9.57;100.00;102731.75;5018742;28;45594;-73
2021/11/18 04:44:55;;;;;;;;;34.75;28.50;;;;;9.56;100.00;102732.50;5019511;28;45401;-73
2021/11/18 04:47:21;;;;;;;;;32.50;27.50;;;;;9.43;100.00;102721.19;5019578;28;45380;-73
2021/11/18 04:49:47;;;;;;;;;32.00;27.25;;;;;9.56;100.00;102742.84;5019130;28;45466;-73
2021/11/18 04:52:14;;;;;;;;;31.25;26.50;;;;;9.53;100.00;102740.00;5018276;28;45323;-72
2021/11/18 04:54:41;;;;;;;;;31.00;25.75;;;;;9.52;100.00;102744.31;5018671;28;45811;-73
2021/11/18 04:57:07;;;;;;;;;32.25;29.75;;;;;9.54;100.00;102750.50;5018415;28;45258;-73
2021/11/18 04:59:33;;;;;;;;;29.50;28.25;;;;;9.52;100.00;102745.97;5018711;28;45257;-73
2021/11/18 05:02:00;;;;;;;;;29.50;26.00;;;;;9.49;100.00;102741.47;5018040;28;46200;-72
2021/11/18 05:04:26;;;;;;;;;36.00;28.00;;;;;9.47;100.00;102745.59;5018995;28;45970;-72
2021/11/18 05:06:51;;;;;;;;;36.25;31.50;;;;;9.48;100.00;102749.09;5018477;28;45549;-72
2021/11/18 05:09:17;;;;;;;;;33.25;29.00;;;;;9.49;100.00;102754.38;5035228;28;45496;-72
2021/11/18 05:11:43;;;;;;;;;27.75;26.00;;;;;9.45;100.00;102753.25;5029976;28;45919;-72
2021/11/18 05:14:09;;;;;;;;;33.25;28.00;;;;;9.45;100.00;102747.16;5018158;28;45909;-72
2021/11/18 05:16:36;;;;;;;;;31.25;25.75;;;;;9.40;100.00;102744.19;5018354;28;45256;-72
2021/11/18 05:19:01;;;;;;;;;29.00;28.00;;;;;9.40;100.00;102748.47;5018613;28;45173;-71
2021/11/18 05:21:28;;;;;;;;;35.00;31.50;;;;;9.36;100.00;102744.75;5017644;28;46059;-71
2021/11/18 05:23:57;;;;;;;;;32.75;28.50;;;;;9.34;100.00;102742.81;5017366;28;45459;-72
2021/11/18 05:26:23;;;;;;;;;29.00;28.00;;;;;9.31;100.00;102752.91;5018369;28;45396;-72
2021/11/18 05:28:50;;;;;;;;;33.50;28.50;;;;;9.28;100.00;102754.47;5018679;28;45330;-73
2021/11/18 05:31:17;;;;;;;;;32.50;29.25;;;;;9.27;100.00;102749.19;5017700;28;45388;-72
2021/11/18 05:33:44;;;;;;;;;37.00;30.50;;;;;9.26;100.00;102748.25;5016731;28;45310;-72
2021/11/18 05:36:10;;;;;;;;;29.25;25.25;;;;;9.24;100.00;102742.06;5017631;28;45392;-72
2021/11/18 05:38:37;;;;;;;;;27.00;24.25;;;;;9.33;100.00;102751.34;5018315;28;45815;-72
2021/11/18 05:41:04;;;;;;;;;31.75;27.50;;;;;9.35;100.00;102755.88;5018060;28;46241;-72
2021/11/18 05:43:31;;;;;;;;;32.75;29.25;;;;;9.36;100.00;102752.50;5017979;28;45291;-73
2021/11/18 05:45:57;;;;;;;;;28.75;27.00;;;;;9.43;100.00;102756.50;5017588;28;45472;-72
2021/11/18 05:48:23;;;;;;;;;29.25;25.00;;;;;9.47;100.00;102766.28;5018320;28;45553;-72
2021/11/18 05:50:52;;;;;;;;;31.75;26.75;;;;;9.52;100.00;102753.72;5017675;28;45532;-72
2021/11/18 05:53:37;;;;;;;;;24.50;24.50;;;;;9.54;100.00;102765.09;5017175;28;45577;-72
2021/11/18 05:56:07;;;;;;;;;31.50;25.75;;;;;9.49;100.00;102764.72;5017854;28;45459;-72
2021/11/18 05:58:33;;;;;;;;;31.75;29.00;;;;;9.47;100.00;102773.16;4999863;28;45582;-72
2021/11/18 06:00:58;;;;;;;;;32.75;27.50;;;;;9.40;100.00;102761.41;5017145;28;46194;-72
2021/11/18 06:03:24;;;;;;;;;32.75;29.25;;;;;9.42;100.00;102786.59;5017744;28;45280;-72
2021/11/18 06:05:50;;;;;;;;;34.75;31.50;;;;;9.38;100.00;102786.22;5017328;28;45446;-73
2021/11/18 06:08:16;;;;;;;;;32.25;31.00;;;;;9.34;100.00;102785.06;5017979;28;45304;-72
2021/11/18 06:10:41;;;;;;;;;34.25;28.75;;;;;9.34;100.00;102787.66;5016967;28;45449;-73
2021/11/18 06:13:08;;;;;;;;;33.25;30.25;;;;;9.23;100.00;102773.84;5033549;28;45326;-73
2021/11/18 06:15:34;;;;;;;;;33.00;32.00;;;;;9.13;100.00;102767.03;5016660;28;45545;-72
2021/11/18 06:18:00;;;;;;;;;29.00;28.75;;;;;9.24;100.00;102786.00;5014130;28;45532;-72
2021/11/18 06:20:26;;;;;;;;;30.75;27.25;;;;;9.19;100.00;102789.88;5016838;28;45276;-73
2021/11/18 06:22:54;;;;;;;;;29.25;26.75;;;;;9.18;100.00;102782.91;5015296;28;45783;-74
2021/11/18 06:25:23;;;;;;;;;31.50;29.00;;;;;9.15;100.00;102787.81;5015949;28;45472;-75
2021/11/18 06:27:50;;;;;;;;;26.25;25.75;;;;;9.17;100.00;102790.56;5016173;28;45585;-74
2021/11/18 06:30:21;;;;;;;;;33.25;27.50;;;;;9.16;100.00;102786.16;5015501;28;46068;-72
2021/11/18 06:32:48;;;;;;;;;31.00;26.00;;;;;9.12;100.00;102780.72;5015731;28;45415;-72
2021/11/18 06:35:15;;;;;;;;;33.25;28.75;;;;;9.11;100.00;102788.38;5016699;28;45410;-72
2021/11/18 06:37:42;;;;;;;;;31.00;25.00;;;;;9.08;100.00;102793.28;5016238;28;45451;-74
2021/11/18 06:40:08;;;;;;;;;33.75;29.00;;;;;8.94;100.00;102793.00;5015833;28;45896;-72
2021/11/18 06:42:34;;;;;;;;;41.75;33.25;;;;;8.92;100.00;102799.72;5015861;28;45277;-73
2021/11/18 06:44:59;;;;;;;;;32.50;27.25;;;;;8.76;100.00;102769.13;5015950;28;45530;-72
2021/11/18 06:47:25;;;;;;;;;36.00;33.75;;;;;8.87;100.00;102798.47;5017293;28;45487;-73
2021/11/18 06:49:53;;;;;;;;;32.00;30.00;;;;;8.91;100.00;102799.63;5016295;28;46454;-73
2021/11/18 06:52:19;;;;;;;;;33.75;32.50;;;;;8.90;100.00;102797.81;5015842;28;45439;-73
2021/11/18 06:54:49;;;;;;;;;34.50;26.75;;;;;8.92;100.00;102802.31;5016541;28;45300;-72
2021/11/18 06:57:17;;;;;;;;;34.50;33.25;;;;;8.93;100.00;102810.97;5015755;28;45446;-75
2021/11/18 06:59:43;;;;;;;;;23.50;23.00;;;;;8.92;100.00;102809.19;5015492;28;45415;-74
2021/11/18 07:02:09;;;;;;;;;34.50;30.50;;;;;8.91;100.00;102803.09;5022589;28;46225;-76
2021/11/18 07:04:35;;;;;;;;;32.00;28.00;;;;;8.93;100.00;102818.75;5024775;28;45273;-79
2021/11/18 07:07:00;;;;;;;;;32.00;27.25;;;;;8.85;100.00;102802.59;5016427;28;45600;-76
2021/11/18 07:09:26;;;;;;;;;32.50;28.75;;;;;8.85;100.00;102812.03;5015592;28;45395;-79
2021/11/18 07:11:52;;;;;;;;;31.50;28.25;;;;;8.89;100.00;102815.00;5015462;28;45527;-76
2021/11/18 07:14:18;;;;;;;;;29.25;25.50;;;;;8.83;100.00;102806.72;5014603;28;45526;-73
2021/11/18 07:16:44;;;;;;;;;33.50;31.25;;;;;8.85;100.00;102812.91;5018323;28;45462;-72
2021/11/18 07:19:10;;;;;;;;;38.75;33.00;;;;;8.85;100.00;102812.91;5018789;28;46124;-76
2021/11/18 07:21:36;;;;;;;;;37.75;32.25;;;;;8.83;100.00;102819.63;5016796;28;45439;-73
2021/11/18 07:24:04;;;;;;;;;33.75;29.75;;;;;8.84;100.00;102821.44;5015855;28;45446;-82
2021/11/18 07:26:31;;;;;;;;;38.75;33.75;;;;;8.83;100.00;102817.03;5034184;28;45831;-75
2021/11/18 07:28:57;;;;;;;;;36.50;34.00;;;;;8.77;100.00;102804.50;5013364;28;46052;-76
2021/11/18 07:31:23;;;;;;;;;35.25;32.75;;;;;8.86;100.00;102812.16;5013280;28;45724;-77
2021/11/18 07:33:49;;;;;;;;;34.25;28.50;;;;;8.90;100.00;102805.56;5014506;28;45320;-74
2021/11/18 07:36:15;;;;;;;;;36.75;33.75;;;;;8.89;100.00;102802.06;5014366;28;46002;-73
2021/11/18 07:38:40;;;;;;;;;35.25;31.00;;;;;8.90;100.00;102809.06;5015411;28;46579;-74
2021/11/18 07:41:08;;;;;;;;;35.75;33.50;;;;;8.91;100.00;102812.53;5016002;28;45283;-72
2021/11/18 07:43:37;;;;;;;;;34.50;34.00;;;;;8.92;100.00;102811.75;5015474;28;45389;-79
2021/11/18 07:46:05;;;;;;;;;37.00;35.00;;;;;8.94;100.00;102811.09;5019046;28;45381;-79
2021/11/18 07:48:32;;;;;;;;;34.50;32.50;;;;;8.97;100.00;102811.38;5014891;28;45596;-73
2021/11/18 07:50:59;;;;;;;;;41.75;37.00;;;;;8.98;100.00;102812.25;5012040;28;45496;-70
2021/11/18 07:53:25;;;;;;;;;45.50;39.00;;;;;9.01;100.00;102806.47;4996858;28;45489;-73
2021/11/18 07:55:52;;;;;;;;;45.00;37.25;;;;;9.01;100.00;102804.78;5018063;28;45249;-72
2021/11/18 07:58:18;;;;;;;;;38.25;34.25;;;;;9.02;100.00;102806.59;5017932;28;46334;-71
2021/11/18 08:00:46;;;;;;;;;35.50;34.00;;;;;9.04;100.00;102810.19;5019092;28;45958;-73
2021/11/18 08:03:13;;;;;;;;;30.50;26.50;;;;;9.11;100.00;102815.09;5019499;28;45320;-72
2021/11/18 08:05:40;;;;;;;;;45.00;36.75;;;;;9.15;100.00;102818.84;5018406;28;45506;-72
2021/11/18 08:08:06;;;;;;;;;39.00;34.00;;;;;9.19;100.00;102827.75;5001202;28;47204;-72
2021/11/18 08:10:32;;;;;;;;;44.75;37.25;;;;;9.16;100.00;102806.84;5018928;28;45372;-73
2021/11/18 08:12:59;;;;;;;;;45.50;38.00;;;;;9.27;100.00;102822.44;5019188;28;45282;-72
2021/11/18 08:15:25;;;;;;;;;45.25;35.00;;;;;9.34;100.00;102821.25;5019230;28;45238;-73
2021/11/18 08:17:51;;;;;;;;;37.75;34.50;;;;;9.41;100.00;102814.91;5019049;28;46046;-73
2021/11/18 08:20:18;;;;;;;;;48.75;39.50;;;;;9.51;100.00;102806.22;5017852;28;45911;-72
2021/11/18 08:22:44;;;;;;;;;45.25;36.25;;;;;9.62;100.00;102814.84;5016636;28;45454;-72
2021/11/18 08:25:12;;;;;;;;;32.50;31.75;;;;;9.62;100.00;102817.44;5018393;28;45531;-73
2021/11/18 08:27:38;;;;;;;;;41.00;34.25;;;;;9.70;100.00;102822.47;5001157;28;45499;-72
2021/11/18 08:30:08;;;;;;;;;43.50;36.50;;;;;9.73;100.00;102824.41;5018323;28;45968;-72
2021/11/18 08:32:34;;;;;;;;;45.00;37.00;;;;;9.79;100.00;102831.75;5018969;28;45393;-72
2021/11/18 08:35:00;;;;;;;;;45.75;36.75;;;;;9.76;100.00;102828.13;5019255;28;45225;-73
2021/11/18 08:37:26;;;;;;;;;39.50;35.00;;;;;9.79;100.00;102835.22;5018509;28;45344;-73
2021/11/18 08:39:52;;;;;;;;;39.75;35.50;;;;;9.80;100.00;102834.44;5018607;28;45162;-73
2021/11/18 08:42:21;;;;;;;;;36.25;33.25;;;;;9.76;100.00;102835.00;5018889;28;45411;-75
2021/11/18 08:44:46;;;;;;;;;50.00;39.25;;;;;9.73;100.00;102835.63;5018427;28;45563;-72
2021/11/18 08:47:14;;;;;;;;;39.25;36.25;;;;;9.77;100.00;102844.56;5018135;28;45313;-73
2021/11/18 08:49:40;;;;;;;;;49.50;39.00;;;;;9.74;100.00;102845.19;5018282;28;45363;-73
2021/11/18 08:52:08;;;;;;;;;49.75;39.00;;;;;9.74;100.00;102852.06;5018529;28;45280;-71
2021/11/18 08:54:37;;;;;;;;;44.75;36.25;;;;;9.73;100.00;102847.66;5018228;28;45353;-73
2021/11/18 08:57:04;;;;;;;;;46.50;37.50;;;;;9.74;100.00;102850.38;5018242;28;46227;-72
2021/11/18 08:59:30;;;;;;;;;35.50;28.75;;;;;9.78;100.00;102851.50;5018610;28;45355;-72
2021/11/18 09:02:02;;;;;;;;;50.25;38.75;;;;;9.81;100.00;102849.19;5018337;28;45288;-73
2021/11/18 09:04:28;;;;;;;;;48.25;39.00;;;;;9.88;100.00;102856.66;5018610;28;45387;-72
2021/11/18 09:06:54;;;;;;;;;44.00;36.00;;;;;9.97;100.00;102853.03;5017170;28;45611;-72
2021/11/18 09:09:24;;;;;;;;;39.50;36.00;;;;;10.01;100.00;102853.38;5017172;28;45360;-72
2021/11/18 09:11:53;;;;;;;;;45.50;37.00;;;;;10.03;100.00;102856.09;5000078;28;45382;-72
2021/11/18 09:14:19;;;;;;;;;54.25;39.75;;;;;10.06;100.00;102856.34;5018016;28;45284;-72
2021/11/18 09:16:46;;;;;;;;;47.75;37.75;;;;;10.06;100.00;102848.56;5018378;28;45361;-72
2021/11/18 09:19:15;;;;;;;;;46.25;39.50;;;;;10.14;100.00;102856.97;5018834;28;46017;-72
2021/11/18 09:21:42;;;;;;;;;48.25;39.75;;;;;10.16;100.00;102866.66;5016489;28;45277;-72
2021/11/18 09:24:13;;;;;;;;;45.25;39.25;;;;;10.20;100.00;102860.91;5018113;28;45421;-73
2021/11/18 09:26:44;;;;;;;;;49.75;42.00;;;;;10.26;100.00;102862.19;5017663;28;45482;-72
2021/11/18 09:29:10;;;;;;;;;50.50;40.25;;;;;10.29;100.00;102865.94;5017713;28;45901;-74
2021/11/18 09:31:36;;;;;;;;;51.00;41.25;;;;;10.13;100.00;102834.44;5017776;28;45299;-72
2021/11/18 09:34:02;;;;;;;;;50.00;41.50;;;;;10.35;100.00;102871.59;5018010;28;45227;-72
2021/11/18 09:36:29;;;;;;;;;47.75;40.00;;;;;10.36;100.00;102873.41;5017601;28;45432;-72
2021/11/18 09:38:58;;;;;;;;;49.00;40.25;;;;;10.38;100.00;102874.44;5017469;28;45293;-72
2021/11/18 09:41:27;;;;;;;;;49.25;41.25;;;;;10.41;100.00;102871.22;5017561;28;45319;-72
2021/11/18 09:44:23;;;;;;;;;51.50;41.75;;;;;10.40;100.00;102866.81;5017793;28;45577;-72
2021/11/18 09:47:11;;;;;;;;;47.00;41.00;;;;;10.41;100.00;102865.13;4997532;28;45224;-73
2021/11/18 09:49:52;;;;;;;;;53.50;43.75;;;;;10.43;100.00;102860.97;4997374;28;45407;-72
2021/11/18 09:52:17;;;;;;;;;53.75;43.75;;;;;10.42;100.00;102867.81;4997394;28;45284;-72
2021/11/18 09:54:49;;;;;;;;;55.00;42.75;;;;;10.45;100.00;102882.72;4997119;28;45634;-72
2021/11/18 09:57:52;;;;;;;;;53.50;43.50;;;;;10.51;100.00;102870.25;4997300;28;46119;-74
2021/11/18 10:00:36;;;;;;;;;49.75;40.75;;;;;10.54;100.00;102870.50;4997417;28;45935;-73
2021/11/18 10:03:07;;;;;;;;;44.25;38.75;;;;;10.58;100.00;102877.72;4997484;28;45360;-71
2021/11/18 10:05:41;;;;;;;;;36.50;34.25;;;;;10.61;100.00;102885.72;4997368;28;45556;-72
2021/11/18 10:08:14;;;;;;;;;37.50;32.75;;;;;10.60;100.00;102880.44;4997091;28;46037;-71
2021/11/18 10:11:25;;;;;;;;;31.25;26.25;;;;;10.62;100.00;102887.53;4997015;28;45419;-72
2021/11/18 10:14:32;;;;;;;;;31.75;30.50;;;;;10.53;100.00;102877.34;4975326;28;45321;-73
2021/11/18 10:17:10;;;;;;;;;31.50;27.50;;;;;10.57;100.00;102887.94;4975729;28;45422;-72
2021/11/18 10:19:43;;;;;;;;;36.00;31.75;;;;;10.62;100.00;102909.94;4993425;28;46380;-72
2021/11/18 10:22:15;;;;;;;;;32.75;30.75;;;;;10.63;100.00;102902.28;4996431;28;45428;-72
2021/11/18 10:24:43;;;;;;;;;38.25;32.00;;;;;10.66;100.00;102901.63;4996640;28;45452;-72
2021/11/18 10:27:21;;;;;;;;;32.25;28.25;;;;;10.67;100.00;102904.34;4997331;28;45304;-73
2021/11/18 10:30:06;;;;;;;;;31.75;27.50;;;;;10.71;100.00;102909.75;4996885;28;45355;-73
2021/11/18 10:32:45;;;;;;;;;28.25;25.75;;;;;10.68;100.00;102892.28;4997213;28;45300;-72
2021/11/18 10:35:30;;;;;;;;;38.75;34.25;;;;;10.72;100.00;102898.59;4996931;28;45373;-73
2021/11/18 10:38:21;;;;;;;;;32.00;28.25;;;;;10.72;100.00;102902.13;4997066;28;45317;-72
2021/11/18 10:41:18;;;;;;;;;27.25;26.50;;;;;10.72;100.00;102894.34;4986510;28;45584;-72
2021/11/18 10:44:06;;;;;;;;;31.50;29.00;;;;;10.75;100.00;102902.31;4996403;28;45284;-71
2021/11/18 10:46:39;;;;;;;;;26.25;25.25;;;;;10.78;100.00;102899.97;4997201;28;45472;-72
2021/11/18 10:49:11;;;;;;;;;30.75;27.50;;;;;10.82;100.00;102894.25;4996856;28;45323;-72
2021/11/18 10:51:36;;;;;;;;;31.25;28.25;;;;;10.84;100.00;102899.56;4978351;28;46437;-73
2021/11/18 10:54:14;;;;;;;;;29.00;24.50;;;;;10.87;100.00;102896.28;4996296;28;45202;-74
2021/11/18 10:56:40;;;;;;;;;31.75;29.25;;;;;10.89;100.00;102892.13;4996558;28;45401;-72
2021/11/18 10:59:07;;;;;;;;;30.50;28.25;;;;;10.94;100.00;102896.00;4996849;28;45442;-72
2021/11/18 11:01:43;;;;;;;;;28.75;24.75;;;;;10.98;100.00;102896.34;4996740;28;45412;-73
2021/11/18 11:04:11;;;;;;;;;28.00;23.50;;;;;10.99;100.00;102887.78;4996680;28;46000;-72
2021/11/18 11:06:40;;;;;;;;;30.50;25.25;;;;;11.04;100.00;102895.91;4996357;28;45230;-73
2021/11/18 11:09:08;;;;;;;;;24.00;22.75;;;;;11.10;100.00;102898.06;4995168;28;45426;-72
2021/11/18 11:12:02;;;;;;;;;26.00;24.75;;;;;11.20;100.00;102894.47;4996246;28;45333;-72